Boise Air Terminal/Gowen field
KBOI : now visible

Airfield :











YOU CAN JOIN US ON...

 
LOGIN :

Register | Disclaimer

   EN    FR    IT 

 









Legend :    VFR   Marginal VFR   IFR   Intensive IFR   Very Intensive IFR
Visi :
Ceiling :
>= 8 km
>= 3000ft
5 to 8 km
1000 to 3000 ft
1500m to 5 km
500 to 1000 ft
800 to 1500m
200 to 500 ft
< 800m
< 200 ft
Symbols :   Thunderstorms  Fog  Heavy snow  Heavy precipitations  Wind > 20 kt







- Airport Elevation : 2871 ft
- IATA code : BOI


KBOI - Boise Air Terminal/Gowen field

CURRENT METAR :
  • 260253Z 32008KT 10SM CLR 25/01 A3001 RMK AO2 SLP136 T02500011 53005

EXPIRED METARs :
  • 260153Z 33012G22KT 10SM CLR 27/02 A2999 RMK AO2 SLP131 T02720017
  • 260053Z 31012G21KT 10SM CLR 28/02 A2998 RMK AO2 SLP129 T02830022

TAF KBOI
Valid from the 26 at 00:00 until the 27 at 00:00 UTC


252320Z 2600/2624 33015G25KT P6SM SKC
FM260400 32007KT P6SM SKC
FM260800 VRB05KT P6SM SKC
FM262000 31010KT P6SM SKC
No reported NOTAMs for that airfield.



MET'MAP, your aeronautical weather chart ! - Copyright ORBIFLY December 2007 - Disclaimer

ORBIFLY MET'MAP TEAM :

Programming & Development : Alexandra Zaïnal
Concept & Development : Baudouin d'Aumeries
Co-Development & Prog : Marc-Olivier Méhu
Technical & hardware support : Manuel Goepfert

Contact : metmap@orbifly.com




SOURCES & CREDITS :

   NOAA       Earth
Advisory